createdAt,value
2022-08-03T00:05:11.481Z,43.5
2022-08-03T00:20:27.454Z,44.5
2022-08-03T00:35:50.791Z,46
2022-08-03T00:51:01.391Z,46
2022-08-03T01:06:18.393Z,46.5
2022-08-03T01:21:34.336Z,49
2022-08-03T01:36:50.294Z,50.5
2022-08-03T01:52:06.305Z,50
2022-08-03T02:07:23.226Z,52.5
2022-08-03T02:22:39.253Z,54.5
2022-08-03T02:23:19.065Z,54.5
2022-08-03T02:37:56.173Z,54
2022-08-03T02:53:13.191Z,54
2022-08-03T03:08:31.137Z,55.5
2022-08-03T03:23:48.103Z,56
2022-08-03T03:39:15.955Z,56.5
2022-08-03T03:54:20.044Z,56.5
2022-08-03T04:09:37.017Z,56.5
2022-08-03T04:24:52.982Z,58.5
2022-08-03T04:40:09.952Z,57
2022-08-03T04:55:44.313Z,61.5
2022-08-03T05:10:44.885Z,57.5
2022-08-03T05:26:00.853Z,54.5
2022-08-03T05:41:20.420Z,52.5
2022-08-03T05:56:33.771Z,50.5
2022-08-03T06:11:49.758Z,51
2022-08-03T06:27:06.695Z,48
2022-08-03T06:42:23.687Z,47
2022-08-03T06:57:40.627Z,46.5
2022-08-03T07:12:57.007Z,46.5
2022-08-03T07:28:12.560Z,43
2022-08-03T07:43:28.565Z,41
2022-08-03T07:58:45.492Z,39
2022-08-03T08:14:01.484Z,36
2022-08-03T08:29:18.425Z,35.5
2022-08-03T08:44:35.429Z,32.5
2022-08-03T08:59:55.728Z,32
2022-08-03T09:15:17.084Z,30
2022-08-03T09:30:33.231Z,30
2022-08-03T09:45:40.298Z,30.5
2022-08-03T10:00:57.360Z,28.5
2022-08-03T10:16:22.945Z,27
2022-08-03T10:31:31.170Z,26
2022-08-03T10:46:48.175Z,26
2022-08-03T11:02:05.147Z,25
2022-08-03T11:17:21.076Z,23.5
2022-08-03T11:32:37.086Z,22
2022-08-03T11:47:53.028Z,21
2022-08-03T12:03:10.070Z,21.5
2022-08-03T12:18:26.963Z,21.5
2022-08-03T12:33:43.939Z,21
2022-08-03T12:48:59.999Z,21
2022-08-03T13:04:18.404Z,19.5
2022-08-03T13:19:32.854Z,19.5
2022-08-03T13:34:48.840Z,19
2022-08-03T13:50:04.929Z,20
2022-08-03T14:05:21.779Z,19.5
2022-08-03T14:20:50.330Z,19
2022-08-03T14:35:55.729Z,19
2022-08-03T14:51:11.706Z,19
2022-08-03T15:06:28.682Z,18.5
2022-08-03T15:21:46.990Z,19
2022-08-03T15:37:00.620Z,19.5
2022-08-03T15:52:16.621Z,20
2022-08-03T16:07:33.568Z,19.5
2022-08-03T16:22:50.588Z,20.5
2022-08-03T16:38:10.402Z,21
2022-08-03T16:53:51.715Z,21.5
2022-08-03T17:08:40.502Z,21.5
2022-08-03T17:23:56.471Z,21.5
2022-08-03T17:39:12.482Z,19.5
2022-08-03T17:54:28.417Z,20.5
2022-08-03T18:10:03.526Z,23.5
2022-08-03T18:25:07.502Z,24.5
2022-08-03T18:40:20.987Z,26.5
2022-08-03T18:55:35.763Z,26
2022-08-03T19:11:00.585Z,26
2022-08-03T19:26:30.643Z,26.5
2022-08-03T19:41:24.210Z,28.5
2022-08-03T19:56:40.204Z,30.5
2022-08-03T20:11:58.147Z,31
2022-08-03T20:27:15.084Z,30.5
2022-08-03T20:42:32.089Z,33
2022-08-03T20:57:49.120Z,34
2022-08-03T21:13:15.880Z,34.5
2022-08-03T21:28:24.664Z,37
2022-08-03T21:43:36.976Z,38.5
2022-08-03T21:58:53.927Z,38.5
2022-08-03T22:14:11.909Z,40.5
2022-08-03T22:29:28.843Z,41
2022-08-03T22:44:44.849Z,41
2022-08-03T23:00:00.772Z,42.5
2022-08-03T23:15:17.778Z,43.5
2022-08-03T23:30:33.704Z,43.5
2022-08-03T23:45:49.716Z,42
